Strona główna
METAR-TAF:

METAR-TAF

Lotnisko :

Aberdeen, Maryland, Stany Zjednoczone

Szerokość geograficzna: 39-28N, Długość geograficzna: 076-10W, wysokość: 18 m

Aktualna obserwacja pogody

Raport powstał 58 minut temu, godzina 00:03 UTC
Wiatr 13 kt od zachód w porywach dochodzący do 21 kt
Temperatura 31°C
Wilgotność 40%
Ciśnienie 1004 hPa
Widzialność: 6.4 km
Mało chmury na wysokości 15000 ft
zmętnienie

METAR: KAPG 040003Z AUTO 26013G21KT 4SM HZ FEW150 31/16 A2965 RMK AO2 SLP043 PNO TSNO $

czas: 21:01 (01:01 UTC)


TAF: brakujący

Obserwacja i prognoza pogody dla ponad 4000 lotnisk (raport METAR i TAF).

Dostępne stacje oznaczono żółtymi i czerwonymi punktami na mapie.

Najedź kursorem aby zobaczyć nazwę stacji.

Kliknij aby zobaczyć obserwacje i prognozy pogody.

Aby zmienić mapę: kliknij na zielony przycisk z czarnym krzyżykiem, aby powiększyć; na zielony przycisk z myślnikiem, aby pomniejszyć; na zielone strzałki, aby przejść do map sąsiednich.


METAR-TAF: